createdAt,value
2022-12-13T00:00:46.022Z,14.27
2022-12-13T00:01:50.252Z,14.33
2022-12-13T00:02:52.195Z,14.33
2022-12-13T00:03:58.479Z,14.24
2022-12-13T00:05:00.530Z,14.33
2022-12-13T00:06:05.548Z,14.31
2022-12-13T00:07:07.331Z,14.19
2022-12-13T00:08:09.171Z,14.30
2022-12-13T00:09:13.888Z,14.29
2022-12-13T00:10:15.776Z,14.29
2022-12-13T00:11:18.011Z,14.22
2022-12-13T00:12:19.783Z,14.27
2022-12-13T00:13:21.547Z,14.28
2022-12-13T00:14:23.457Z,14.27
2022-12-13T00:15:25.289Z,14.27
2022-12-13T00:16:27.553Z,14.26
2022-12-13T00:17:32.329Z,14.23
2022-12-13T00:18:34.426Z,14.25
2022-12-13T00:19:36.317Z,14.25
2022-12-13T00:20:40.361Z,14.23
2022-12-13T00:21:42.266Z,14.23
2022-12-13T00:22:44.102Z,14.23
2022-12-13T00:23:46.554Z,14.22
2022-12-13T00:24:48.322Z,14.22
2022-12-13T00:25:50.837Z,14.20
2022-12-13T00:26:55.490Z,14.20
2022-12-13T00:27:57.583Z,14.21
2022-12-13T00:29:00.907Z,14.21
2022-12-13T00:30:02.840Z,14.16
2022-12-13T00:31:34.242Z,14.20
2022-12-13T00:32:26.777Z,14.19
2022-12-13T00:33:29.487Z,14.22
2022-12-13T00:34:31.439Z,14.22
2022-12-13T00:35:34.414Z,14.09
2022-12-13T00:36:36.316Z,14.19
2022-12-13T00:37:38.109Z,14.14
2022-12-13T00:38:39.926Z,14.18
2022-12-13T00:39:41.814Z,14.16
2022-12-13T00:40:43.775Z,14.16
2022-12-13T00:41:45.727Z,14.15
2022-12-13T00:42:47.573Z,14.15
2022-12-13T00:43:49.409Z,14.13
2022-12-13T00:44:51.323Z,14.14
2022-12-13T00:45:53.072Z,14.13
2022-12-13T00:46:55.111Z,14.13
2022-12-13T00:47:56.851Z,14.07
2022-12-13T00:49:01.248Z,14.11
2022-12-13T00:50:05.150Z,14.11
2022-12-13T00:51:08.813Z,14.11
2022-12-13T00:52:10.593Z,14.12
2022-12-13T00:53:12.337Z,14.11
2022-12-13T00:54:14.112Z,14.10
2022-12-13T00:55:16.368Z,14.09
2022-12-13T00:56:21.796Z,14.05
2022-12-13T00:57:23.604Z,14.09
2022-12-13T00:58:25.376Z,14.08
2022-12-13T00:59:27.308Z,14.08
2022-12-13T01:00:29.070Z,14.07
2022-12-13T01:01:33.927Z,14.06
2022-12-13T01:02:36.000Z,14.07
2022-12-13T01:03:38.955Z,14.07
2022-12-13T01:04:40.712Z,14.06
2022-12-13T01:06:13.875Z,14.07
2022-12-13T01:07:04.653Z,14.10
2022-12-13T01:08:06.529Z,14.08
2022-12-13T01:09:17.135Z,14.02
2022-12-13T01:10:18.998Z,14.07
2022-12-13T01:11:21.052Z,14.08
2022-12-13T01:12:23.087Z,14.06
2022-12-13T01:13:24.913Z,14.04
2022-12-13T01:14:27.338Z,13.93
2022-12-13T01:15:29.364Z,14.04
2022-12-13T01:16:31.288Z,14.02
2022-12-13T01:17:35.579Z,14.00
2022-12-13T01:18:38.618Z,13.95
2022-12-13T01:19:40.373Z,14.01
2022-12-13T01:20:42.197Z,14.00
2022-12-13T01:21:44.019Z,13.97
2022-12-13T01:22:45.809Z,13.98
2022-12-13T01:23:48.349Z,13.95
2022-12-13T01:24:50.145Z,13.97
2022-12-13T01:25:51.981Z,13.98
2022-12-13T01:26:56.963Z,13.96
2022-12-13T01:28:01.881Z,13.96
2022-12-13T01:29:05.812Z,13.96
2022-12-13T01:30:07.970Z,13.95
2022-12-13T01:31:13.675Z,13.93
2022-12-13T01:32:16.465Z,13.95
2022-12-13T01:33:18.236Z,13.94
2022-12-13T01:34:21.137Z,13.92
2022-12-13T01:35:28.169Z,13.82
2022-12-13T01:36:30.007Z,13.94
2022-12-13T01:37:31.843Z,13.93
2022-12-13T01:38:39.532Z,13.93
2022-12-13T01:39:41.356Z,13.91
2022-12-13T01:40:48.399Z,13.87
2022-12-13T01:41:52.690Z,13.91
2022-12-13T01:42:54.631Z,13.84
2022-12-13T01:44:03.339Z,13.92
2022-12-13T01:45:21.952Z,13.92
2022-12-13T01:46:24.291Z,13.94
2022-12-13T01:47:42.472Z,13.92
2022-12-13T01:49:20.066Z,13.88
2022-12-13T01:50:28.272Z,13.99
2022-12-13T01:51:37.387Z,13.96
2022-12-13T01:52:40.875Z,13.94
2022-12-13T01:53:46.077Z,13.91
2022-12-13T01:54:51.104Z,13.90
2022-12-13T01:55:58.151Z,13.88
2022-12-13T01:57:00.781Z,13.83
2022-12-13T01:58:05.085Z,13.87
2022-12-13T01:59:08.613Z,13.86
2022-12-13T02:00:11.444Z,13.85
2022-12-13T02:01:13.457Z,13.85
2022-12-13T02:02:15.346Z,13.80
2022-12-13T02:03:20.933Z,13.81
2022-12-13T02:04:34.802Z,13.84
2022-12-13T02:06:07.026Z,13.92
2022-12-13T02:07:09.392Z,13.86
2022-12-13T02:08:15.763Z,13.87
2022-12-13T02:09:17.817Z,13.85
2022-12-13T02:10:21.514Z,13.82
2022-12-13T02:11:23.314Z,13.81
2022-12-13T02:12:29.886Z,13.79
2022-12-13T02:13:32.232Z,13.80
2022-12-13T02:14:37.981Z,13.78
2022-12-13T02:16:05.827Z,13.84
2022-12-13T02:17:19.354Z,13.85
2022-12-13T02:18:58.248Z,13.87
2022-12-13T02:20:26.747Z,13.88
2022-12-13T02:22:09.880Z,13.92
2022-12-13T02:23:23.533Z,13.92
2022-12-13T02:24:47.101Z,13.84
2022-12-13T02:25:54.882Z,13.83
2022-12-13T02:27:15.010Z,13.84
2022-12-13T02:28:47.826Z,13.82
2022-12-13T02:30:12.613Z,13.83
2022-12-13T02:31:28.361Z,13.81
2022-12-13T02:32:50.661Z,13.80
2022-12-13T02:34:02.284Z,13.78
2022-12-13T02:35:12.431Z,13.75
2022-12-13T02:36:36.382Z,13.78
2022-12-13T02:37:48.006Z,13.77
2022-12-13T02:38:52.715Z,13.74
2022-12-13T02:40:00.921Z,13.60
2022-12-13T02:41:11.319Z,13.67
2022-12-13T02:42:25.457Z,13.71
2022-12-13T02:43:34.878Z,13.69
2022-12-13T02:44:50.633Z,13.69
2022-12-13T02:45:58.296Z,13.61
2022-12-13T02:47:22.015Z,13.69
2022-12-13T02:48:29.021Z,13.71
2022-12-13T02:49:37.516Z,13.68
2022-12-13T02:50:40.794Z,13.67
2022-12-13T02:51:44.432Z,13.67
2022-12-13T02:52:46.916Z,13.66
2022-12-13T02:53:48.784Z,13.62
2022-12-13T02:54:50.544Z,13.62
2022-12-13T02:55:53.163Z,13.59
2022-12-13T02:56:59.262Z,13.60
2022-12-13T02:58:01.126Z,13.62
2022-12-13T02:59:12.605Z,13.60
2022-12-13T03:00:19.496Z,13.61
2022-12-13T03:01:42.935Z,13.65
2022-12-13T03:03:12.870Z,13.68
2022-12-13T03:05:05.460Z,13.73
2022-12-13T03:06:33.723Z,13.74
2022-12-13T03:07:50.079Z,13.74
2022-12-13T03:09:08.329Z,13.69
2022-12-13T03:10:18.848Z,13.68
2022-12-13T03:11:23.653Z,13.64
2022-12-13T03:13:00.368Z,13.63
2022-12-13T03:14:08.713Z,13.65
2022-12-13T03:15:26.625Z,13.63
2022-12-13T03:16:43.434Z,13.64
2022-12-13T03:17:55.908Z,13.62
2022-12-13T03:19:00.889Z,13.59
2022-12-13T03:20:04.029Z,13.57
2022-12-13T03:21:24.512Z,13.56
2022-12-13T03:22:26.285Z,13.57
2022-12-13T03:23:28.766Z,13.55
2022-12-13T03:24:30.547Z,13.54
2022-12-13T03:25:32.981Z,13.51
2022-12-13T03:26:37.272Z,13.51
2022-12-13T03:27:39.337Z,13.51
2022-12-13T03:28:41.594Z,13.46
2022-12-13T03:29:43.378Z,13.37
2022-12-13T03:30:45.466Z,13.48
2022-12-13T03:31:47.305Z,13.50
2022-12-13T03:32:49.214Z,13.48
2022-12-13T03:33:51.058Z,13.48
2022-12-13T03:35:21.661Z,13.49
2022-12-13T03:36:15.655Z,13.54
2022-12-13T03:37:17.696Z,13.49
2022-12-13T03:38:22.670Z,13.50
2022-12-13T03:39:25.193Z,13.50
2022-12-13T03:40:27.388Z,13.39
2022-12-13T03:41:32.320Z,13.45
2022-12-13T03:42:34.081Z,13.43
2022-12-13T03:43:36.138Z,13.49
2022-12-13T03:44:38.085Z,13.49
2022-12-13T03:45:39.829Z,13.48
2022-12-13T03:46:41.843Z,13.45
2022-12-13T03:47:43.745Z,13.41
2022-12-13T03:48:45.610Z,13.46
2022-12-13T03:49:47.389Z,13.47
2022-12-13T03:50:57.558Z,13.48
2022-12-13T03:51:59.354Z,13.48
2022-12-13T03:53:03.849Z,13.47
2022-12-13T03:54:05.661Z,13.38
2022-12-13T03:55:07.846Z,13.45
2022-12-13T03:56:09.590Z,13.46
2022-12-13T03:57:11.357Z,13.46
2022-12-13T03:58:13.316Z,13.45
2022-12-13T03:59:15.147Z,13.44
2022-12-13T04:00:17.273Z,13.36
2022-12-13T04:01:19.149Z,13.45
2022-12-13T04:02:31.213Z,13.44
2022-12-13T04:03:34.544Z,13.46
2022-12-13T04:04:36.310Z,13.44
2022-12-13T04:05:38.245Z,13.41
2022-12-13T04:06:40.015Z,13.43
2022-12-13T04:07:48.077Z,13.44
2022-12-13T04:08:51.959Z,13.42
2022-12-13T04:09:53.841Z,13.43
2022-12-13T04:10:55.668Z,13.42
2022-12-13T04:12:15.909Z,13.41
2022-12-13T04:13:32.720Z,13.39
2022-12-13T04:14:34.549Z,13.46
2022-12-13T04:15:36.701Z,13.44
2022-12-13T04:16:38.638Z,13.35
2022-12-13T04:17:40.430Z,13.37
2022-12-13T04:18:42.558Z,13.40
2022-12-13T04:19:44.456Z,13.31
2022-12-13T04:20:47.187Z,13.34
2022-12-13T04:21:49.243Z,13.39
2022-12-13T04:22:51.609Z,13.39
2022-12-13T04:23:54.141Z,13.37
2022-12-13T04:24:55.905Z,13.38
2022-12-13T04:25:59.985Z,13.37
2022-12-13T04:27:02.248Z,13.39
2022-12-13T04:28:04.090Z,13.37
2022-12-13T04:29:06.106Z,13.35
2022-12-13T04:30:08.740Z,13.37
2022-12-13T04:31:10.547Z,13.18
2022-12-13T04:32:26.979Z,13.35
2022-12-13T04:33:29.286Z,13.40
2022-12-13T04:34:36.874Z,13.38
2022-12-13T04:35:39.446Z,13.38
2022-12-13T04:36:41.988Z,13.38
2022-12-13T04:37:43.868Z,13.38
2022-12-13T04:38:46.913Z,13.35
2022-12-13T04:39:48.700Z,13.34
2022-12-13T04:40:50.501Z,13.35
2022-12-13T04:41:53.186Z,13.33
2022-12-13T04:42:55.265Z,13.34
2022-12-13T04:43:57.030Z,13.24
2022-12-13T04:45:00.179Z,13.27
2022-12-13T04:46:02.087Z,13.26
2022-12-13T04:47:04.456Z,13.32
2022-12-13T04:48:06.595Z,13.31
2022-12-13T04:49:08.647Z,13.32
2022-12-13T04:50:11.392Z,13.31
2022-12-13T04:51:15.799Z,13.24
2022-12-13T04:52:22.617Z,13.31
2022-12-13T04:53:24.558Z,13.28
2022-12-13T04:54:26.412Z,13.32
2022-12-13T04:55:28.173Z,13.31
2022-12-13T04:56:29.939Z,13.29
2022-12-13T04:57:31.776Z,13.30
2022-12-13T04:58:33.926Z,13.25
2022-12-13T04:59:36.972Z,13.29
2022-12-13T05:00:40.487Z,13.29
2022-12-13T05:01:46.315Z,13.30
2022-12-13T05:02:48.324Z,13.30
2022-12-13T05:03:50.269Z,13.29
2022-12-13T05:04:53.691Z,13.29
2022-12-13T05:05:57.962Z,13.30
2022-12-13T05:06:59.839Z,13.29
2022-12-13T05:08:01.917Z,13.28
2022-12-13T05:09:03.735Z,13.28
2022-12-13T05:10:33.595Z,13.27
2022-12-13T05:11:36.236Z,13.35
2022-12-13T05:12:47.503Z,13.34
2022-12-13T05:13:49.267Z,13.31
2022-12-13T05:14:54.597Z,13.29
2022-12-13T05:16:01.656Z,13.22
2022-12-13T05:17:03.675Z,13.29
2022-12-13T05:18:09.950Z,13.23
2022-12-13T05:19:12.773Z,13.25
2022-12-13T05:20:14.608Z,13.27
2022-12-13T05:21:16.353Z,13.25
2022-12-13T05:22:20.603Z,13.26
2022-12-13T05:23:24.893Z,13.25
2022-12-13T05:24:26.683Z,13.25
2022-12-13T05:25:28.651Z,13.24
2022-12-13T05:26:30.432Z,13.24
2022-12-13T05:27:32.332Z,13.24
2022-12-13T05:28:34.569Z,13.24
2022-12-13T05:29:37.597Z,13.24
2022-12-13T05:30:40.777Z,13.23
2022-12-13T05:31:42.660Z,13.21
2022-12-13T05:32:44.985Z,13.22
2022-12-13T05:33:47.178Z,13.22
2022-12-13T05:34:50.087Z,13.20
2022-12-13T05:35:56.313Z,13.12
2022-12-13T05:37:01.102Z,13.22
2022-12-13T05:38:03.959Z,13.22
2022-12-13T05:39:05.773Z,13.22
2022-12-13T05:40:30.331Z,13.26
2022-12-13T05:41:35.521Z,13.25
2022-12-13T05:42:38.953Z,13.23
2022-12-13T05:43:42.402Z,13.23
2022-12-13T05:44:45.410Z,13.22
2022-12-13T05:45:47.248Z,13.20
2022-12-13T05:46:49.084Z,13.19
2022-12-13T05:47:51.736Z,13.19
2022-12-13T05:48:53.484Z,13.05
2022-12-13T05:49:55.299Z,13.18
2022-12-13T05:51:10.607Z,13.17
2022-12-13T05:52:21.585Z,13.20
2022-12-13T05:53:32.171Z,13.24
2022-12-13T05:54:33.928Z,13.19
2022-12-13T05:55:38.312Z,13.15
2022-12-13T05:56:40.057Z,13.20
2022-12-13T05:57:41.842Z,13.17
2022-12-13T05:58:54.252Z,13.08
2022-12-13T05:59:56.943Z,13.20
2022-12-13T06:01:09.907Z,13.18
2022-12-13T06:02:14.443Z,13.21
2022-12-13T06:03:20.442Z,13.18
2022-12-13T06:04:23.390Z,13.20
2022-12-13T06:05:25.448Z,13.14
2022-12-13T06:06:28.835Z,13.13
2022-12-13T06:07:30.985Z,13.19
2022-12-13T06:08:32.983Z,13.20
2022-12-13T06:09:40.035Z,13.20
2022-12-13T06:10:42.117Z,13.22
2022-12-13T06:11:43.890Z,13.17
2022-12-13T06:12:45.674Z,13.10
2022-12-13T06:13:52.205Z,13.24
2022-12-13T06:15:03.260Z,13.30
2022-12-13T06:16:06.509Z,13.27
2022-12-13T06:17:25.440Z,13.38
2022-12-13T06:18:27.338Z,13.27
2022-12-13T06:19:29.150Z,13.17
2022-12-13T06:20:30.987Z,13.42
2022-12-13T06:21:44.147Z,13.45
2022-12-13T06:22:48.123Z,13.50
2022-12-13T06:23:49.907Z,13.52
2022-12-13T06:24:52.097Z,13.54
2022-12-13T06:25:54.231Z,13.58
2022-12-13T06:26:56.068Z,13.59
2022-12-13T06:27:57.890Z,13.62
2022-12-13T06:29:02.980Z,13.60
2022-12-13T06:30:05.246Z,13.69
2022-12-13T06:31:07.095Z,13.72
2022-12-13T06:32:09.030Z,13.76
2022-12-13T06:33:13.349Z,13.80
2022-12-13T06:34:15.617Z,13.82
2022-12-13T06:35:29.038Z,13.74
2022-12-13T06:36:31.924Z,13.92
2022-12-13T06:37:33.721Z,13.94
2022-12-13T06:38:43.109Z,13.97
2022-12-13T06:39:45.613Z,14.01
2022-12-13T06:40:47.424Z,14.03
2022-12-13T06:41:49.728Z,14.04
2022-12-13T06:42:51.550Z,14.03
2022-12-13T06:43:53.408Z,14.08
2022-12-13T06:44:56.081Z,14.12
2022-12-13T06:45:58.272Z,14.14
2022-12-13T06:47:11.713Z,14.11
2022-12-13T06:48:20.046Z,14.20
2022-12-13T06:49:22.333Z,14.23
2022-12-13T06:50:24.279Z,14.21
2022-12-13T06:51:32.263Z,14.25
2022-12-13T06:52:34.737Z,14.27
2022-12-13T06:53:38.071Z,14.28
2022-12-13T06:54:40.716Z,14.30
2022-12-13T06:55:42.574Z,14.31
2022-12-13T06:56:44.414Z,14.32
2022-12-13T06:57:46.169Z,14.34
2022-12-13T06:58:48.116Z,14.10
2022-12-13T06:59:49.934Z,14.35
2022-12-13T07:01:02.064Z,14.36
2022-12-13T07:02:04.261Z,14.34
2022-12-13T07:03:06.264Z,14.33
2022-12-13T07:04:29.578Z,14.39
2022-12-13T07:05:33.005Z,14.45
2022-12-13T07:06:35.106Z,14.40
2022-12-13T07:07:36.977Z,14.44
2022-12-13T07:08:38.790Z,14.43
2022-12-13T07:09:40.896Z,14.42
2022-12-13T07:10:42.937Z,14.42
2022-12-13T07:11:51.697Z,14.41
2022-12-13T07:12:54.255Z,14.43
2022-12-13T07:13:56.473Z,14.43
2022-12-13T07:14:58.215Z,14.42
2022-12-13T07:16:01.359Z,14.42
2022-12-13T07:17:03.873Z,14.41
2022-12-13T07:18:05.873Z,14.34
2022-12-13T07:19:23.126Z,14.36
2022-12-13T07:20:26.386Z,14.37
2022-12-13T07:21:29.501Z,14.40
2022-12-13T07:22:35.295Z,14.44
2022-12-13T07:23:39.885Z,14.42
2022-12-13T07:24:41.779Z,14.43
2022-12-13T07:25:52.202Z,14.42
2022-12-13T07:26:54.084Z,14.43
2022-12-13T07:28:06.975Z,14.41
2022-12-13T07:29:08.824Z,14.44
2022-12-13T07:30:11.203Z,14.42
2022-12-13T07:31:13.695Z,14.41
2022-12-13T07:32:15.968Z,14.40
2022-12-13T07:33:22.007Z,14.40
2022-12-13T07:34:24.707Z,14.35
2022-12-13T07:35:26.521Z,14.40
2022-12-13T07:36:28.278Z,14.33
2022-12-13T07:37:31.179Z,14.41
2022-12-13T07:38:34.594Z,14.36
2022-12-13T07:39:36.420Z,14.31
2022-12-13T07:40:40.180Z,14.42
2022-12-13T07:41:42.094Z,14.45
2022-12-13T07:42:56.544Z,14.44
2022-12-13T07:44:00.430Z,14.34
2022-12-13T07:45:02.315Z,14.47
2022-12-13T07:46:06.388Z,14.46
2022-12-13T07:47:08.284Z,14.46
2022-12-13T07:48:10.080Z,14.46
2022-12-13T07:49:12.014Z,14.46
2022-12-13T07:50:25.126Z,14.45
2022-12-13T07:51:27.425Z,14.48
2022-12-13T07:52:29.482Z,14.40
2022-12-13T07:53:33.334Z,14.47
2022-12-13T07:54:35.693Z,14.46
2022-12-13T07:55:38.134Z,14.45
2022-12-13T07:56:39.897Z,14.38
2022-12-13T07:57:41.788Z,14.34
2022-12-13T07:58:44.179Z,14.44
2022-12-13T07:59:46.047Z,14.32
2022-12-13T08:00:47.904Z,14.43
2022-12-13T08:01:50.556Z,14.37
2022-12-13T08:02:52.350Z,14.21
2022-12-13T08:03:54.102Z,14.40
2022-12-13T08:04:56.009Z,14.41
2022-12-13T08:06:06.951Z,14.37
2022-12-13T08:07:09.890Z,14.37
2022-12-13T08:08:11.893Z,14.43
2022-12-13T08:09:13.838Z,14.36
2022-12-13T08:10:15.765Z,14.42
2022-12-13T08:11:17.726Z,14.42
2022-12-13T08:12:22.435Z,14.40
2022-12-13T08:13:24.806Z,14.41
2022-12-13T08:14:26.581Z,14.40
2022-12-13T08:15:28.470Z,14.38
2022-12-13T08:16:30.669Z,14.40
2022-12-13T08:17:32.589Z,14.33
2022-12-13T08:18:34.611Z,14.38
2022-12-13T08:19:36.486Z,14.30
2022-12-13T08:20:38.325Z,14.40
2022-12-13T08:22:01.397Z,14.33
2022-12-13T08:23:03.832Z,14.44
2022-12-13T08:24:07.223Z,14.41
2022-12-13T08:25:10.730Z,14.39
2022-12-13T08:26:12.907Z,14.39
2022-12-13T08:27:14.717Z,14.38
2022-12-13T08:28:16.570Z,14.37
2022-12-13T08:29:22.728Z,14.37
2022-12-13T08:30:35.701Z,14.39
2022-12-13T08:31:38.226Z,14.38
2022-12-13T08:32:40.077Z,14.38
2022-12-13T08:33:43.793Z,14.37
2022-12-13T08:34:46.020Z,14.37
2022-12-13T08:35:47.898Z,14.27
2022-12-13T08:36:49.692Z,14.34
2022-12-13T08:37:51.494Z,14.35
2022-12-13T08:38:56.314Z,14.25
2022-12-13T08:39:58.311Z,14.35
2022-12-13T08:41:00.099Z,14.35
2022-12-13T08:42:15.422Z,14.34
2022-12-13T08:43:24.948Z,14.39
2022-12-13T08:44:27.103Z,14.38
2022-12-13T08:45:29.021Z,14.29
2022-12-13T08:46:30.854Z,14.38
2022-12-13T08:47:34.535Z,14.36
2022-12-13T08:48:44.245Z,14.34
2022-12-13T08:49:47.286Z,14.32
2022-12-13T08:50:49.150Z,14.35
2022-12-13T08:51:50.912Z,14.36
2022-12-13T08:52:52.769Z,14.34
2022-12-13T08:54:09.962Z,14.29
2022-12-13T08:55:15.081Z,14.34
2022-12-13T08:56:18.838Z,14.36
2022-12-13T08:57:20.816Z,14.29
2022-12-13T08:58:22.671Z,14.34
2022-12-13T08:59:25.469Z,14.29
2022-12-13T09:00:27.329Z,14.34
2022-12-13T09:01:29.391Z,14.32
2022-12-13T09:02:31.213Z,14.19
2022-12-13T09:03:40.389Z,14.25
2022-12-13T09:04:42.841Z,14.32
2022-12-13T09:05:45.243Z,14.32
2022-12-13T09:06:47.078Z,14.31
2022-12-13T09:07:48.878Z,14.29
2022-12-13T09:08:53.580Z,14.30
2022-12-13T09:09:55.462Z,14.19
2022-12-13T09:10:59.817Z,14.25
2022-12-13T09:12:01.773Z,14.25
2022-12-13T09:13:13.376Z,14.32
2022-12-13T09:14:34.499Z,14.33
2022-12-13T09:15:39.852Z,14.34
2022-12-13T09:16:51.168Z,14.35
2022-12-13T09:17:54.482Z,14.27
2022-12-13T09:18:56.481Z,14.34
2022-12-13T09:19:58.825Z,14.26
2022-12-13T09:21:11.796Z,14.31
2022-12-13T09:22:14.635Z,14.32
2022-12-13T09:23:24.054Z,14.32
2022-12-13T09:24:26.296Z,14.27
2022-12-13T09:25:28.125Z,14.25
2022-12-13T09:26:38.914Z,14.33
2022-12-13T09:27:40.898Z,14.31
2022-12-13T09:28:42.863Z,14.28
2022-12-13T09:29:44.740Z,14.31
2022-12-13T09:30:46.518Z,14.31
2022-12-13T09:31:52.880Z,14.30
2022-12-13T09:32:56.344Z,14.30
2022-12-13T09:33:58.153Z,14.30
2022-12-13T09:34:59.947Z,14.30
2022-12-13T09:36:06.000Z,14.23
2022-12-13T09:37:09.032Z,14.30
2022-12-13T09:38:11.038Z,14.30
2022-12-13T09:39:13.276Z,14.28
2022-12-13T09:40:26.297Z,14.28
2022-12-13T09:41:40.548Z,14.31
2022-12-13T09:42:46.700Z,14.33
2022-12-13T09:44:01.136Z,14.32
2022-12-13T09:45:21.993Z,14.33
2022-12-13T09:46:34.981Z,14.35
2022-12-13T09:47:49.173Z,14.37
2022-12-13T09:49:01.447Z,14.34
2022-12-13T09:50:15.061Z,14.34
2022-12-13T09:51:29.936Z,14.34
2022-12-13T09:52:41.938Z,14.35
2022-12-13T09:53:43.920Z,14.34
2022-12-13T09:54:48.690Z,14.32
2022-12-13T09:55:52.545Z,14.31
2022-12-13T09:56:56.122Z,14.30
2022-12-13T09:58:01.059Z,14.29
2022-12-13T09:59:03.666Z,14.29
2022-12-13T10:00:10.998Z,14.28
2022-12-13T10:01:13.549Z,14.30
2022-12-13T10:02:29.108Z,14.27
2022-12-13T10:03:30.949Z,14.29
2022-12-13T10:04:32.787Z,14.15
2022-12-13T10:05:39.599Z,14.26
2022-12-13T10:06:41.869Z,14.29
2022-12-13T10:07:43.987Z,14.29
2022-12-13T10:08:58.487Z,14.22
2022-12-13T10:10:04.216Z,14.32
2022-12-13T10:11:06.396Z,14.30
2022-12-13T10:12:14.339Z,14.21
2022-12-13T10:13:34.677Z,14.31
2022-12-13T10:14:40.989Z,14.21
2022-12-13T10:15:48.664Z,14.30
2022-12-13T10:16:58.230Z,14.29
2022-12-13T10:18:03.985Z,14.31
2022-12-13T10:19:36.244Z,14.31
2022-12-13T10:20:38.826Z,14.36
2022-12-13T10:21:43.551Z,14.25
2022-12-13T10:22:56.490Z,14.31
2022-12-13T10:24:27.270Z,14.34
2022-12-13T10:26:03.023Z,14.40
2022-12-13T10:27:16.652Z,14.34
2022-12-13T10:28:25.124Z,14.36
2022-12-13T10:29:26.961Z,14.34
2022-12-13T10:30:43.238Z,14.32
2022-12-13T10:31:52.018Z,14.25
2022-12-13T10:33:05.261Z,14.31
2022-12-13T10:34:27.322Z,14.28
2022-12-13T10:35:36.252Z,14.25
2022-12-13T10:36:41.423Z,14.33
2022-12-13T10:37:43.250Z,14.31
2022-12-13T10:38:46.257Z,14.24
2022-12-13T10:39:48.025Z,14.26
2022-12-13T10:40:49.906Z,14.26
2022-12-13T10:42:03.788Z,14.27
2022-12-13T10:43:22.528Z,14.31
2022-12-13T10:44:25.497Z,14.31
2022-12-13T10:45:27.408Z,14.00
2022-12-13T10:46:31.373Z,14.27
2022-12-13T10:47:43.645Z,14.26
2022-12-13T10:48:51.963Z,14.26
2022-12-13T10:49:59.799Z,14.27
2022-12-13T10:51:04.725Z,14.28
2022-12-13T10:52:19.553Z,14.26
2022-12-13T10:53:43.820Z,14.31
2022-12-13T10:54:50.945Z,14.33
2022-12-13T10:55:56.973Z,14.30
2022-12-13T10:57:05.165Z,14.30
2022-12-13T10:58:09.754Z,14.27
2022-12-13T10:59:21.376Z,14.23
2022-12-13T11:00:41.308Z,14.30
2022-12-13T11:01:43.258Z,14.29
2022-12-13T11:02:54.185Z,14.27
2022-12-13T11:04:25.419Z,14.29
2022-12-13T11:05:33.462Z,14.27
2022-12-13T11:06:44.389Z,14.30
2022-12-13T11:07:47.144Z,14.30
2022-12-13T11:08:49.007Z,14.27
2022-12-13T11:09:52.715Z,14.24
2022-12-13T11:11:00.111Z,14.23
2022-12-13T11:12:13.294Z,14.23
2022-12-13T11:13:34.651Z,14.28
2022-12-13T11:14:48.762Z,14.20
2022-12-13T11:15:55.768Z,14.27
2022-12-13T11:17:00.364Z,14.18
2022-12-13T11:18:08.726Z,14.24
2022-12-13T11:19:31.208Z,14.16
2022-12-13T11:20:38.126Z,14.24
2022-12-13T11:21:46.286Z,14.27
2022-12-13T11:22:49.589Z,14.26
2022-12-13T11:23:51.408Z,14.23
2022-12-13T11:25:08.015Z,14.22
2022-12-13T11:26:15.598Z,14.24
2022-12-13T11:27:44.581Z,14.28
2022-12-13T11:28:46.341Z,14.29
2022-12-13T11:30:10.253Z,14.29
2022-12-13T11:31:36.537Z,14.17
2022-12-13T11:33:04.262Z,14.29
2022-12-13T11:34:27.518Z,14.30
2022-12-13T11:36:07.854Z,14.34
2022-12-13T11:37:21.606Z,14.34
2022-12-13T11:38:36.181Z,14.31
2022-12-13T11:39:45.561Z,14.24
2022-12-13T11:40:56.913Z,14.20
2022-12-13T11:42:08.294Z,14.24
2022-12-13T11:43:33.445Z,14.27
2022-12-13T11:44:58.805Z,14.27
2022-12-13T11:46:04.771Z,14.28
2022-12-13T11:47:16.809Z,14.26
2022-12-13T11:48:36.957Z,14.25
2022-12-13T11:49:40.929Z,14.26
2022-12-13T11:50:49.059Z,14.23
2022-12-13T11:51:58.372Z,14.22
2022-12-13T11:53:16.915Z,14.26
2022-12-13T11:54:42.953Z,14.29
2022-12-13T11:55:53.195Z,14.29
2022-12-13T11:57:00.761Z,14.27
2022-12-13T11:58:11.655Z,14.23
2022-12-13T11:59:27.178Z,14.28
2022-12-13T12:00:37.197Z,14.20
2022-12-13T12:01:44.651Z,14.24
2022-12-13T12:02:53.542Z,14.24
2022-12-13T12:04:02.308Z,14.14
2022-12-13T12:05:17.909Z,14.19
2022-12-13T12:07:17.846Z,14.24
2022-12-13T12:08:53.161Z,14.34
2022-12-13T12:10:12.631Z,14.35
2022-12-13T12:11:21.130Z,14.32
2022-12-13T12:12:38.333Z,14.28
2022-12-13T12:13:51.426Z,14.26
2022-12-13T12:15:05.653Z,14.25
2022-12-13T12:16:30.921Z,14.27
2022-12-13T12:17:42.097Z,14.26
2022-12-13T12:18:44.506Z,14.24
2022-12-13T12:19:50.888Z,14.14
2022-12-13T12:21:42.745Z,14.23
2022-12-13T12:23:19.045Z,14.32
2022-12-13T12:25:00.806Z,14.31
2022-12-13T12:26:13.916Z,14.19
2022-12-13T12:27:30.713Z,14.28
2022-12-13T12:28:55.801Z,14.24
2022-12-13T12:30:24.345Z,14.27
2022-12-13T12:31:51.486Z,14.24
2022-12-13T12:33:08.278Z,14.25
2022-12-13T12:34:18.917Z,14.23
2022-12-13T12:35:46.328Z,14.22
2022-12-13T12:37:05.200Z,14.20
2022-12-13T12:38:16.478Z,14.21
2022-12-13T12:39:40.682Z,14.21
2022-12-13T12:42:25.712Z,14.22
2022-12-13T12:43:40.796Z,14.20
2022-12-13T12:45:03.785Z,14.21
2022-12-13T12:46:46.816Z,14.21
2022-12-13T12:50:12.435Z,14.26
2022-12-13T12:51:20.792Z,14.24
2022-12-13T12:52:51.603Z,14.20
2022-12-13T12:54:08.402Z,14.12
2022-12-13T12:55:11.815Z,14.18
2022-12-13T12:56:44.297Z,14.15
2022-12-13T12:58:33.742Z,14.23
2022-12-13T13:00:03.374Z,14.21
2022-12-13T13:01:14.382Z,14.12
2022-12-13T13:02:22.778Z,14.14
2022-12-13T13:03:29.949Z,14.10
2022-12-13T13:04:42.336Z,14.09
2022-12-13T13:06:05.031Z,14.13
2022-12-13T13:07:22.887Z,14.12
2022-12-13T13:08:50.047Z,14.13
2022-12-13T13:09:57.339Z,14.14
2022-12-13T13:11:01.937Z,14.10
2022-12-13T13:12:09.610Z,14.07
2022-12-13T13:13:47.294Z,14.12
2022-12-13T13:14:49.318Z,14.11
2022-12-13T13:15:57.208Z,13.85
2022-12-13T13:17:01.415Z,14.06
2022-12-13T13:18:03.340Z,14.05
2022-12-13T13:19:12.583Z,14.03
2022-12-13T13:20:23.507Z,14.04
2022-12-13T13:21:25.909Z,14.05
2022-12-13T13:22:31.669Z,14.03
2022-12-13T13:23:40.666Z,13.96
2022-12-13T13:24:42.963Z,14.04
2022-12-13T13:26:16.075Z,14.02
2022-12-13T13:27:15.863Z,14.09
2022-12-13T13:28:18.936Z,14.05
2022-12-13T13:29:27.717Z,14.05
2022-12-13T13:30:30.599Z,14.04
2022-12-13T13:32:05.901Z,14.09
2022-12-13T13:33:41.599Z,14.14
2022-12-13T13:34:49.245Z,14.04
2022-12-13T13:35:53.718Z,14.08
2022-12-13T13:36:57.258Z,14.08
2022-12-13T13:38:17.002Z,14.09
2022-12-13T13:39:39.740Z,14.09
2022-12-13T13:40:41.597Z,14.11
2022-12-13T13:41:49.513Z,14.07
2022-12-13T13:42:57.280Z,14.06
2022-12-13T13:44:02.317Z,14.05
2022-12-13T13:45:23.659Z,14.08
2022-12-13T13:46:25.464Z,14.08
2022-12-13T13:47:27.320Z,14.06
2022-12-13T13:48:38.297Z,14.03
2022-12-13T13:49:54.756Z,14.05
2022-12-13T13:51:29.810Z,14.12
2022-12-13T13:53:07.824Z,14.14
2022-12-13T13:54:31.461Z,14.18
2022-12-13T13:55:48.228Z,14.04
2022-12-13T13:57:05.295Z,14.13
2022-12-13T13:58:31.003Z,14.13
2022-12-13T13:59:54.382Z,14.15
2022-12-13T14:01:22.937Z,14.12
2022-12-13T14:02:43.258Z,14.14
2022-12-13T14:04:04.009Z,14.14
2022-12-13T14:05:43.497Z,14.14
2022-12-13T14:07:01.958Z,14.13
2022-12-13T14:08:24.207Z,14.11
2022-12-13T14:09:46.243Z,14.12
2022-12-13T14:11:05.990Z,14.11
2022-12-13T14:12:18.383Z,14.12
2022-12-13T14:13:57.065Z,14.13
2022-12-13T14:15:32.002Z,14.11
2022-12-13T14:17:18.791Z,14.16
2022-12-13T14:18:45.369Z,14.18
2022-12-13T14:20:01.907Z,14.13
2022-12-13T14:21:25.112Z,14.10
2022-12-13T14:22:36.612Z,14.10
2022-12-13T14:24:06.199Z,14.08
2022-12-13T14:25:30.666Z,14.13
2022-12-13T14:26:56.087Z,14.08
2022-12-13T14:28:39.896Z,14.13
2022-12-13T14:29:47.957Z,14.12
2022-12-13T14:30:57.293Z,14.10
2022-12-13T14:31:59.851Z,14.08
2022-12-13T14:33:01.717Z,14.03
2022-12-13T14:34:07.616Z,14.00
2022-12-13T14:35:25.338Z,14.02
2022-12-13T14:36:32.443Z,14.03
2022-12-13T14:37:38.578Z,14.02
2022-12-13T14:38:40.421Z,14.03
2022-12-13T14:39:45.251Z,13.90
2022-12-13T14:40:54.276Z,14.00